Port Heiden Airport Port Heiden US
ICAO: PAPH
IATA:
Category: Medium
Scheduled Services:

Elevation: 95 ft
TransAlt. 18000 ft.

Airport Communications:
AWOS 3:135.4
ANCHORAGE CNTR:132.9
CTAF:122.8
KENAI RDO:122

PAPH Zoom In..

If you have problems with the map follow the link
https://www.worldairports.se/pages/airport.php?
ICAO=PAPH

Runways:

(A) RW 05 length 5000 ft width 100 ft
---- / hdg 54

(B) RW 13 length 4000 ft width 100 ft
---- / hdg 131

(C) RW 23 length 5000 ft width 100 ft
---- / hdg 234

(D) RW 31 length 4000 ft width 100 ft
---- / hdg 311

Location; PAPH
Day. 11 / Time. 13.18 Zulu
* Altimeter: 29.09
* Temperature: 03° c. 37.4°f.
* Wind from: 010° Speed 12 kn.
Dewpoint: 02° c.
Visibility: 10 Statute Miles.
Clouds: Overcast 1500 ft.
Conditions: Light Rain.

PAPH 111318Z AUTO 01012KT 10SM -RA OVC015 03/02 A2909 RMK AO2 UPB1259E04RAB04SNE1259 P0002


Wind From 010°
Speed 12 kn.

 
 
jpsmedia worldairports.se 2019   terms of use